sensor_id;sensor_type;location;lat;lon;timestamp;pressure;altitude;pressure_sealevel;temperature;humidity
31005;BME280;17676;52.254;4.490;2023-09-08T00:01:48;101484.56;;;21.87;100.00
31005;BME280;17676;52.254;4.490;2023-09-08T00:04:14;101470.38;;;21.68;100.00
31005;BME280;17676;52.254;4.490;2023-09-08T00:06:40;101470.84;;;21.55;100.00
31005;BME280;17676;52.254;4.490;2023-09-08T00:09:07;101456.72;;;21.47;100.00
31005;BME280;17676;52.254;4.490;2023-09-08T00:11:32;101452.03;;;21.47;100.00
31005;BME280;17676;52.254;4.490;2023-09-08T00:13:58;101453.19;;;21.56;100.00
31005;BME280;17676;52.254;4.490;2023-09-08T00:16:23;101442.16;;;21.51;100.00
31005;BME280;17676;52.254;4.490;2023-09-08T00:18:49;101444.41;;;21.59;100.00
31005;BME280;17676;52.254;4.490;2023-09-08T00:21:15;101460.78;;;21.76;100.00
31005;BME280;17676;52.254;4.490;2023-09-08T00:23:40;101470.38;;;21.68;100.00
31005;BME280;17676;52.254;4.490;2023-09-08T00:26:06;101467.41;;;21.75;100.00
31005;BME280;17676;52.254;4.490;2023-09-08T00:28:31;101460.16;;;21.69;100.00
31005;BME280;17676;52.254;4.490;2023-09-08T00:30:57;101461.25;;;21.68;100.00
31005;BME280;17676;52.254;4.490;2023-09-08T00:33:25;101479.41;;;21.64;100.00
31005;BME280;17676;52.254;4.490;2023-09-08T00:35:50;101478.81;;;21.57;100.00
31005;BME280;17676;52.254;4.490;2023-09-08T00:38:17;101475.13;;;21.41;100.00
31005;BME280;17676;52.254;4.490;2023-09-08T00:40:42;101454.94;;;21.31;100.00
31005;BME280;17676;52.254;4.490;2023-09-08T00:43:08;101469.00;;;21.34;100.00
31005;BME280;17676;52.254;4.490;2023-09-08T00:45:38;101456.59;;;21.32;100.00
31005;BME280;17676;52.254;4.490;2023-09-08T00:48:06;101451.66;;;21.34;100.00
31005;BME280;17676;52.254;4.490;2023-09-08T00:50:32;101450.31;;;21.36;100.00
31005;BME280;17676;52.254;4.490;2023-09-08T00:52:58;101454.84;;;21.52;100.00
31005;BME280;17676;52.254;4.490;2023-09-08T00:55:24;101461.69;;;21.50;100.00
31005;BME280;17676;52.254;4.490;2023-09-08T00:57:50;101460.03;;;21.49;100.00
31005;BME280;17676;52.254;4.490;2023-09-08T01:00:15;101476.38;;;21.60;100.00
31005;BME280;17676;52.254;4.490;2023-09-08T01:02:41;101481.88;;;21.60;100.00
31005;BME280;17676;52.254;4.490;2023-09-08T01:05:08;101471.34;;;21.52;100.00
31005;BME280;17676;52.254;4.490;2023-09-08T01:07:34;101468.00;;;21.45;100.00
31005;BME280;17676;52.254;4.490;2023-09-08T01:10:02;101472.16;;;21.53;100.00
31005;BME280;17676;52.254;4.490;2023-09-08T01:12:32;101477.13;;;21.51;100.00
31005;BME280;17676;52.254;4.490;2023-09-08T01:14:58;101469.59;;;21.36;100.00
31005;BME280;17676;52.254;4.490;2023-09-08T01:17:24;101478.41;;;21.38;100.00
31005;BME280;17676;52.254;4.490;2023-09-08T01:19:54;101474.84;;;21.38;100.00
31005;BME280;17676;52.254;4.490;2023-09-08T01:22:31;101477.25;;;21.29;100.00
31005;BME280;17676;52.254;4.490;2023-09-08T01:27:48;101450.50;;;20.93;100.00
31005;BME280;17676;52.254;4.490;2023-09-08T01:30:16;101437.81;;;20.92;100.00
31005;BME280;17676;52.254;4.490;2023-09-08T01:32:42;101433.72;;;20.95;100.00
31005;BME280;17676;52.254;4.490;2023-09-08T01:35:09;101431.25;;;20.98;100.00
31005;BME280;17676;52.254;4.490;2023-09-08T01:37:35;101442.59;;;21.02;100.00
31005;BME280;17676;52.254;4.490;2023-09-08T01:40:01;101419.13;;;20.94;100.00
31005;BME280;17676;52.254;4.490;2023-09-08T01:42:26;101424.44;;;21.01;100.00
31005;BME280;17676;52.254;4.490;2023-09-08T01:44:52;101420.25;;;20.98;100.00
31005;BME280;17676;52.254;4.490;2023-09-08T01:47:18;101411.41;;;20.91;100.00
31005;BME280;17676;52.254;4.490;2023-09-08T01:49:43;101428.25;;;21.00;100.00
31005;BME280;17676;52.254;4.490;2023-09-08T01:52:09;101421.59;;;20.96;100.00
31005;BME280;17676;52.254;4.490;2023-09-08T01:54:34;101419.13;;;20.94;100.00
31005;BME280;17676;52.254;4.490;2023-09-08T01:57:00;101400.59;;;20.85;100.00
31005;BME280;17676;52.254;4.490;2023-09-08T01:59:25;101410.78;;;20.89;100.00
31005;BME280;17676;52.254;4.490;2023-09-08T02:01:51;101415.75;;;20.87;100.00
31005;BME280;17676;52.254;4.490;2023-09-08T02:04:17;101430.06;;;20.89;100.00
31005;BME280;17676;52.254;4.490;2023-09-08T02:06:42;101430.00;;;20.84;100.00
31005;BME280;17676;52.254;4.490;2023-09-08T02:09:08;101430.53;;;20.81;100.00
31005;BME280;17676;52.254;4.490;2023-09-08T02:11:37;101414.44;;;20.68;100.00
31005;BME280;17676;52.254;4.490;2023-09-08T02:14:05;101412.25;;;20.70;100.00
31005;BME280;17676;52.254;4.490;2023-09-08T02:16:32;101423.06;;;20.77;100.00
31005;BME280;17676;52.254;4.490;2023-09-08T02:18:57;101415.81;;;20.66;100.00
31005;BME280;17676;52.254;4.490;2023-09-08T02:21:23;101417.75;;;20.70;100.00
31005;BME280;17676;52.254;4.490;2023-09-08T02:23:49;101423.25;;;20.70;100.00
31005;BME280;17676;52.254;4.490;2023-09-08T02:26:15;101403.66;;;20.62;100.00
31005;BME280;17676;52.254;4.490;2023-09-08T02:28:40;101405.03;;;20.59;100.00
31005;BME280;17676;52.254;4.490;2023-09-08T02:31:06;101391.19;;;20.54;100.00
31005;BME280;17676;52.254;4.490;2023-09-08T02:33:32;101400.66;;;20.63;100.00
31005;BME280;17676;52.254;4.490;2023-09-08T02:36:04;101386.75;;;20.48;100.00
31005;BME280;17676;52.254;4.490;2023-09-08T02:38:31;101395.03;;;20.53;100.00
31005;BME280;17676;52.254;4.490;2023-09-08T02:40:57;101383.94;;;20.43;100.00
31005;BME280;17676;52.254;4.490;2023-09-08T02:43:22;101385.09;;;20.47;100.00
31005;BME280;17676;52.254;4.490;2023-09-08T02:45:48;101375.13;;;20.41;100.00
31005;BME280;17676;52.254;4.490;2023-09-08T02:48:13;101379.47;;;20.37;100.00
31005;BME280;17676;52.254;4.490;2023-09-08T02:50:39;101390.59;;;20.47;100.00
31005;BME280;17676;52.254;4.490;2023-09-08T02:53:04;101390.25;;;20.44;100.00
31005;BME280;17676;52.254;4.490;2023-09-08T02:55:30;101378.88;;;20.30;100.00
31005;BME280;17676;52.254;4.490;2023-09-08T02:57:56;101369.66;;;20.20;100.00
31005;BME280;17676;52.254;4.490;2023-09-08T03:00:22;101369.34;;;20.16;100.00
31005;BME280;17676;52.254;4.490;2023-09-08T03:02:47;101361.94;;;20.17;100.00
31005;BME280;17676;52.254;4.490;2023-09-08T03:05:13;101364.13;;;20.15;100.00
31005;BME280;17676;52.254;4.490;2023-09-08T03:07:38;101344.19;;;20.08;100.00
31005;BME280;17676;52.254;4.490;2023-09-08T03:10:05;101370.28;;;20.27;100.00
31005;BME280;17676;52.254;4.490;2023-09-08T03:12:30;101356.75;;;20.20;100.00
31005;BME280;17676;52.254;4.490;2023-09-08T03:14:56;101360.59;;;20.19;100.00
31005;BME280;17676;52.254;4.490;2023-09-08T03:17:22;101370.53;;;20.25;100.00
31005;BME280;17676;52.254;4.490;2023-09-08T03:19:47;101370.53;;;20.25;100.00
31005;BME280;17676;52.254;4.490;2023-09-08T03:22:15;101374.34;;;20.19;100.00
31005;BME280;17676;52.254;4.490;2023-09-08T03:24:41;101366.09;;;20.19;100.00
31005;BME280;17676;52.254;4.490;2023-09-08T03:27:06;101368.25;;;20.17;100.00
31005;BME280;17676;52.254;4.490;2023-09-08T03:29:32;101364.28;;;20.08;100.00
31005;BME280;17676;52.254;4.490;2023-09-08T03:31:58;101361.22;;;20.05;100.00
31005;BME280;17676;52.254;4.490;2023-09-08T03:34:23;101348.31;;;20.05;100.00
31005;BME280;17676;52.254;4.490;2023-09-08T03:36:49;101354.47;;;20.12;100.00
31005;BME280;17676;52.254;4.490;2023-09-08T03:39:15;101351.16;;;20.10;100.00
31005;BME280;17676;52.254;4.490;2023-09-08T03:41:41;101362.47;;;20.14;100.00
31005;BME280;17676;52.254;4.490;2023-09-08T03:44:06;101344.16;;;20.03;100.00
31005;BME280;17676;52.254;4.490;2023-09-08T03:46:32;101344.16;;;20.03;100.00
31005;BME280;17676;52.254;4.490;2023-09-08T03:48:58;101350.50;;;20.03;100.00
31005;BME280;17676;52.254;4.490;2023-09-08T03:51:29;101338.34;;;19.99;100.00
31005;BME280;17676;52.254;4.490;2023-09-08T03:53:54;101341.63;;;19.96;100.00
31005;BME280;17676;52.254;4.490;2023-09-08T03:56:20;101351.47;;;19.92;100.00
31005;BME280;17676;52.254;4.490;2023-09-08T03:58:47;101339.78;;;19.80;100.00
31005;BME280;17676;52.254;4.490;2023-09-08T04:01:13;101344.13;;;19.76;100.00
31005;BME280;17676;52.254;4.490;2023-09-08T04:03:38;101334.78;;;19.77;100.00
31005;BME280;17676;52.254;4.490;2023-09-08T04:06:04;101328.72;;;19.75;100.00
31005;BME280;17676;52.254;4.490;2023-09-08T04:08:29;101339.66;;;19.70;100.00
31005;BME280;17676;52.254;4.490;2023-09-08T04:10:55;101327.28;;;19.68;100.00
31005;BME280;17676;52.254;4.490;2023-09-08T04:13:21;101333.59;;;19.68;100.00
31005;BME280;17676;52.254;4.490;2023-09-08T04:15:47;101332.81;;;19.73;100.00
31005;BME280;17676;52.254;4.490;2023-09-08T04:18:12;101317.59;;;19.65;100.00
31005;BME280;17676;52.254;4.490;2023-09-08T04:20:38;101338.56;;;19.71;100.00
31005;BME280;17676;52.254;4.490;2023-09-08T04:23:04;101347.19;;;19.80;100.00
31005;BME280;17676;52.254;4.490;2023-09-08T04:25:30;101346.63;;;19.78;100.00
31005;BME280;17676;52.254;4.490;2023-09-08T04:27:55;101339.91;;;19.69;100.00
31005;BME280;17676;52.254;4.490;2023-09-08T04:30:21;101335.81;;;19.71;100.00
31005;BME280;17676;52.254;4.490;2023-09-08T04:32:47;101320.53;;;19.59;100.00
31005;BME280;17676;52.254;4.490;2023-09-08T04:35:12;101323.28;;;19.59;100.00
31005;BME280;17676;52.254;4.490;2023-09-08T04:37:38;101326.22;;;19.52;100.00
31005;BME280;17676;52.254;4.490;2023-09-08T04:40:05;101321.13;;;19.39;100.00
31005;BME280;17676;52.254;4.490;2023-09-08T04:42:30;101316.19;;;19.41;100.00
31005;BME280;17676;52.254;4.490;2023-09-08T04:44:56;101301.31;;;19.37;100.00
31005;BME280;17676;52.254;4.490;2023-09-08T04:47:22;101294.75;;;19.38;100.00
31005;BME280;17676;52.254;4.490;2023-09-08T04:49:47;101295.72;;;19.27;100.00
31005;BME280;17676;52.254;4.490;2023-09-08T04:52:13;101272.50;;;19.18;100.00
31005;BME280;17676;52.254;4.490;2023-09-08T04:54:40;101297.34;;;19.28;100.00
31005;BME280;17676;52.254;4.490;2023-09-08T04:57:05;101301.91;;;19.39;100.00
31005;BME280;17676;52.254;4.490;2023-09-08T04:59:31;101274.91;;;19.31;100.00
31005;BME280;17676;52.254;4.490;2023-09-08T05:01:58;101286.06;;;19.25;100.00
31005;BME280;17676;52.254;4.490;2023-09-08T05:04:23;101285.72;;;19.21;100.00
31005;BME280;17676;52.254;4.490;2023-09-08T05:06:49;101289.53;;;19.20;100.00
31005;BME280;17676;52.254;4.490;2023-09-08T05:09:14;101290.78;;;19.29;100.00
31005;BME280;17676;52.254;4.490;2023-09-08T05:11:40;101273.16;;;19.25;100.00
31005;BME280;17676;52.254;4.490;2023-09-08T05:14:06;101281.88;;;19.22;100.00
31005;BME280;17676;52.254;4.490;2023-09-08T05:16:32;101276.41;;;19.22;100.00
31005;BME280;17676;52.254;4.490;2023-09-08T05:19:11;101277.22;;;19.22;100.00
31005;BME280;17676;52.254;4.490;2023-09-08T05:21:37;101288.69;;;19.36;100.00
31005;BME280;17676;52.254;4.490;2023-09-08T05:24:03;101281.53;;;19.35;100.00
31005;BME280;17676;52.254;4.490;2023-09-08T05:26:29;101294.16;;;19.36;100.00
31005;BME280;17676;52.254;4.490;2023-09-08T05:28:54;101293.97;;;19.43;100.00
31005;BME280;17676;52.254;4.490;2023-09-08T05:31:20;101282.03;;;19.32;100.00
31005;BME280;17676;52.254;4.490;2023-09-08T05:33:48;101270.91;;;19.22;100.00
31005;BME280;17676;52.254;4.490;2023-09-08T05:36:13;101288.63;;;19.31;100.00
31005;BME280;17676;52.254;4.490;2023-09-08T05:38:39;101256.03;;;19.18;100.00
31005;BME280;17676;52.254;4.490;2023-09-08T05:41:04;101256.69;;;19.25;100.00
31005;BME280;17676;52.254;4.490;2023-09-08T05:43:30;101257.09;;;19.34;100.00
31005;BME280;17676;52.254;4.490;2023-09-08T05:45:56;101283.00;;;19.43;100.00
31005;BME280;17676;52.254;4.490;2023-09-08T05:48:21;101284.47;;;19.50;100.00
31005;BME280;17676;52.254;4.490;2023-09-08T05:50:46;101298.28;;;19.55;100.00
31005;BME280;17676;52.254;4.490;2023-09-08T05:53:12;101295.28;;;19.57;100.00
31005;BME280;17676;52.254;4.490;2023-09-08T05:55:37;101297.56;;;19.65;100.00
31005;BME280;17676;52.254;4.490;2023-09-08T05:58:03;101303.94;;;19.70;100.00
31005;BME280;17676;52.254;4.490;2023-09-08T06:00:28;101318.28;;;19.77;100.00
31005;BME280;17676;52.254;4.490;2023-09-08T06:02:56;101313.59;;;19.73;100.00
31005;BME280;17676;52.254;4.490;2023-09-08T06:05:21;101327.44;;;19.83;100.00
31005;BME280;17676;52.254;4.490;2023-09-08T06:07:47;101339.56;;;19.87;100.00
31005;BME280;17676;52.254;4.490;2023-09-08T06:10:14;101339.91;;;19.90;100.00
31005;BME280;17676;52.254;4.490;2023-09-08T06:12:39;101346.00;;;19.97;100.00
31005;BME280;17676;52.254;4.490;2023-09-08T06:15:05;101362.00;;;20.00;100.00
31005;BME280;17676;52.254;4.490;2023-09-08T06:17:31;101353.75;;;20.00;100.00
31005;BME280;17676;52.254;4.490;2023-09-08T06:19:56;101352.72;;;20.06;100.00
31005;BME280;17676;52.254;4.490;2023-09-08T06:22:22;101369.88;;;20.13;100.00
31005;BME280;17676;52.254;4.490;2023-09-08T06:24:47;101355.66;;;20.21;100.00
31005;BME280;17676;52.254;4.490;2023-09-08T06:27:14;101344.19;;;20.29;100.00
31005;BME280;17676;52.254;4.490;2023-09-08T06:29:40;101351.94;;;20.32;100.00
31005;BME280;17676;52.254;4.490;2023-09-08T06:32:09;101354.78;;;20.42;100.00
31005;BME280;17676;52.254;4.490;2023-09-08T06:34:34;101349.63;;;20.51;100.00
31005;BME280;17676;52.254;4.490;2023-09-08T06:37:01;101348.84;;;20.55;100.00
31005;BME280;17676;52.254;4.490;2023-09-08T06:39:27;101344.16;;;20.56;100.00
31005;BME280;17676;52.254;4.490;2023-09-08T06:41:53;101344.44;;;20.54;100.00
31005;BME280;17676;52.254;4.490;2023-09-08T06:44:20;101317.50;;;20.56;100.00
31005;BME280;17676;52.254;4.490;2023-09-08T06:46:45;101321.38;;;20.60;100.00
31005;BME280;17676;52.254;4.490;2023-09-08T06:49:11;101321.75;;;20.69;100.00
31005;BME280;17676;52.254;4.490;2023-09-08T06:51:37;101318.19;;;20.73;100.00
31005;BME280;17676;52.254;4.490;2023-09-08T06:54:04;101320.91;;;20.68;100.00
31005;BME280;17676;52.254;4.490;2023-09-08T06:56:29;101317.56;;;20.66;100.00
31005;BME280;17676;52.254;4.490;2023-09-08T06:58:55;101327.03;;;20.75;100.00
31005;BME280;17676;52.254;4.490;2023-09-08T07:01:23;101332.91;;;20.89;100.00
31005;BME280;17676;52.254;4.490;2023-09-08T07:03:48;101331.13;;;21.04;100.00
31005;BME280;17676;52.254;4.490;2023-09-08T07:06:14;101332.00;;;21.15;100.00
31005;BME280;17676;52.254;4.490;2023-09-08T07:08:39;101341.75;;;21.27;100.00
31005;BME280;17676;52.254;4.490;2023-09-08T07:11:05;101340.66;;;21.33;100.00
31005;BME280;17676;52.254;4.490;2023-09-08T07:13:30;101342.91;;;21.41;100.00
31005;BME280;17676;52.254;4.490;2023-09-08T07:15:56;101359.25;;;21.58;100.00
31005;BME280;17676;52.254;4.490;2023-09-08T07:18:21;101380.75;;;21.61;100.00
31005;BME280;17676;52.254;4.490;2023-09-08T07:20:47;101375.31;;;21.71;100.00
31005;BME280;17676;52.254;4.490;2023-09-08T07:23:14;101388.34;;;21.80;100.00
31005;BME280;17676;52.254;4.490;2023-09-08T07:25:39;101391.09;;;21.80;100.00
31005;BME280;17676;52.254;4.490;2023-09-08T07:28:05;101385.66;;;22.00;100.00
31005;BME280;17676;52.254;4.490;2023-09-08T07:30:32;101381.66;;;23.18;100.00
31005;BME280;17676;52.254;4.490;2023-09-08T07:32:57;101433.38;;;24.80;100.00
31005;BME280;17676;52.254;4.490;2023-09-08T07:35:23;101493.94;;;26.39;100.00
31005;BME280;17676;52.254;4.490;2023-09-08T07:37:49;101554.13;;;27.78;100.00
31005;BME280;17676;52.254;4.490;2023-09-08T07:40:15;101589.94;;;28.30;100.00
31005;BME280;17676;52.254;4.490;2023-09-08T07:42:40;101597.72;;;28.01;100.00
31005;BME280;17676;52.254;4.490;2023-09-08T07:45:06;101602.31;;;29.19;100.00
31005;BME280;17676;52.254;4.490;2023-09-08T07:47:32;101608.41;;;30.00;100.00
31005;BME280;17676;52.254;4.490;2023-09-08T07:52:42;101598.44;;;31.51;100.00
31005;BME280;17676;52.254;4.490;2023-09-08T07:55:08;101605.19;;;31.41;100.00
31005;BME280;17676;52.254;4.490;2023-09-08T07:57:33;101601.97;;;32.65;100.00
31005;BME280;17676;52.254;4.490;2023-09-08T07:59:59;101608.16;;;31.79;100.00
31005;BME280;17676;52.254;4.490;2023-09-08T08:02:24;101608.63;;;31.89;100.00
31005;BME280;17676;52.254;4.490;2023-09-08T08:04:50;101601.81;;;32.99;100.00
31005;BME280;17676;52.254;4.490;2023-09-08T08:07:15;101608.31;;;32.54;100.00
31005;BME280;17676;52.254;4.490;2023-09-08T08:09:41;101614.41;;;30.38;100.00
31005;BME280;17676;52.254;4.490;2023-09-08T08:12:06;101604.19;;;31.80;100.00
31005;BME280;17676;52.254;4.490;2023-09-08T08:14:32;101609.16;;;31.83;100.00
31005;BME280;17676;52.254;4.490;2023-09-08T08:16:57;101611.03;;;31.05;100.00
31005;BME280;17676;52.254;4.490;2023-09-08T08:19:23;101609.31;;;31.61;100.00
31005;BME280;17676;52.254;4.490;2023-09-08T08:21:48;101601.94;;;32.28;100.00
31005;BME280;17676;52.254;4.490;2023-09-08T08:24:14;101603.13;;;32.35;100.00
31005;BME280;17676;52.254;4.490;2023-09-08T08:26:39;101602.94;;;33.07;100.00
31005;BME280;17676;52.254;4.490;2023-09-08T08:29:05;101624.94;;;31.36;100.00
31005;BME280;17676;52.254;4.490;2023-09-08T08:31:30;101615.22;;;31.25;100.00
31005;BME280;17676;52.254;4.490;2023-09-08T08:33:56;101612.53;;;32.31;100.00
31005;BME280;17676;52.254;4.490;2023-09-08T08:36:21;101614.72;;;33.62;100.00
31005;BME280;17676;52.254;4.490;2023-09-08T08:38:46;101624.97;;;33.87;100.00
31005;BME280;17676;52.254;4.490;2023-09-08T08:41:12;101619.88;;;32.52;100.00
31005;BME280;17676;52.254;4.490;2023-09-08T08:43:38;101620.34;;;32.92;100.00
31005;BME280;17676;52.254;4.490;2023-09-08T08:46:04;101627.56;;;31.41;100.00
31005;BME280;17676;52.254;4.490;2023-09-08T08:48:31;101614.34;;;31.16;100.00
31005;BME280;17676;52.254;4.490;2023-09-08T08:50:58;101627.50;;;30.59;100.00
31005;BME280;17676;52.254;4.490;2023-09-08T08:53:25;101621.25;;;31.01;100.00
31005;BME280;17676;52.254;4.490;2023-09-08T08:55:53;101605.84;;;31.72;100.00
31005;BME280;17676;52.254;4.490;2023-09-08T08:58:21;101619.13;;;32.72;100.00
31005;BME280;17676;52.254;4.490;2023-09-08T09:00:51;101619.81;;;33.68;100.00
31005;BME280;17676;52.254;4.490;2023-09-08T09:03:20;101617.28;;;33.55;100.00
31005;BME280;17676;52.254;4.490;2023-09-08T09:05:46;101624.94;;;33.46;100.00
31005;BME280;17676;52.254;4.490;2023-09-08T09:08:12;101615.72;;;33.78;100.00
31005;BME280;17676;52.254;4.490;2023-09-08T09:10:38;101611.72;;;33.26;100.00
31005;BME280;17676;52.254;4.490;2023-09-08T09:13:08;101609.09;;;32.00;100.00
31005;BME280;17676;52.254;4.490;2023-09-08T09:15:34;101606.69;;;32.44;100.00
31005;BME280;17676;52.254;4.490;2023-09-08T09:18:06;101614.03;;;32.11;100.00
31005;BME280;17676;52.254;4.490;2023-09-08T09:20:33;101600.41;;;31.59;100.00
31005;BME280;17676;52.254;4.490;2023-09-08T09:22:59;101609.28;;;31.26;100.00
31005;BME280;17676;52.254;4.490;2023-09-08T09:25:29;101595.81;;;31.46;100.00
31005;BME280;17676;52.254;4.490;2023-09-08T09:28:00;101608.63;;;31.98;100.00
31005;BME280;17676;52.254;4.490;2023-09-08T09:30:26;101609.84;;;32.43;100.00
31005;BME280;17676;52.254;4.490;2023-09-08T09:33:03;101621.50;;;31.39;100.00
31005;BME280;17676;52.254;4.490;2023-09-08T09:35:46;101604.25;;;30.89;100.00
31005;BME280;17676;52.254;4.490;2023-09-08T09:38:13;101606.59;;;31.04;100.00
31005;BME280;17676;52.254;4.490;2023-09-08T09:40:39;101602.53;;;31.53;100.00
31005;BME280;17676;52.254;4.490;2023-09-08T09:43:06;101594.06;;;30.93;100.00
31005;BME280;17676;52.254;4.490;2023-09-08T09:45:33;101593.13;;;31.15;100.00
31005;BME280;17676;52.254;4.490;2023-09-08T09:47:59;101595.13;;;31.66;100.00
31005;BME280;17676;52.254;4.490;2023-09-08T09:50:32;101611.50;;;30.90;100.00
31005;BME280;17676;52.254;4.490;2023-09-08T09:53:03;101589.63;;;31.01;100.00
31005;BME280;17676;52.254;4.490;2023-09-08T09:55:29;101602.06;;;31.25;100.00
31005;BME280;17676;52.254;4.490;2023-09-08T09:57:58;101575.94;;;32.10;100.00
31005;BME280;17676;52.254;4.490;2023-09-08T10:00:26;101582.56;;;32.06;100.00
31005;BME280;17676;52.254;4.490;2023-09-08T10:02:53;101593.72;;;32.23;100.00
31005;BME280;17676;52.254;4.490;2023-09-08T10:05:18;101591.16;;;32.01;100.00
31005;BME280;17676;52.254;4.490;2023-09-08T10:07:46;101588.22;;;31.89;100.00
31005;BME280;17676;52.254;4.490;2023-09-08T10:10:12;101589.16;;;32.10;100.00
31005;BME280;17676;52.254;4.490;2023-09-08T10:12:38;101599.06;;;31.99;100.00
31005;BME280;17676;52.254;4.490;2023-09-08T10:15:06;101589.38;;;31.54;100.00
31005;BME280;17676;52.254;4.490;2023-09-08T10:17:33;101597.88;;;31.14;100.00
31005;BME280;17676;52.254;4.490;2023-09-08T10:20:00;101588.59;;;30.41;100.00
31005;BME280;17676;52.254;4.490;2023-09-08T10:22:30;101601.16;;;29.55;100.00
31005;BME280;17676;52.254;4.490;2023-09-08T10:25:01;101589.16;;;29.68;100.00
31005;BME280;17676;52.254;4.490;2023-09-08T10:27:29;101593.59;;;29.91;100.00
31005;BME280;17676;52.254;4.490;2023-09-08T10:29:55;101589.56;;;29.84;100.00
31005;BME280;17676;52.254;4.490;2023-09-08T10:32:20;101592.00;;;30.29;100.00
31005;BME280;17676;52.254;4.490;2023-09-08T10:34:48;101604.47;;;30.62;100.00
31005;BME280;17676;52.254;4.490;2023-09-08T10:37:21;101605.09;;;30.90;100.00
31005;BME280;17676;52.254;4.490;2023-09-08T10:39:47;101601.34;;;30.64;100.00
31005;BME280;17676;52.254;4.490;2023-09-08T10:47:13;101591.06;;;30.81;100.00
31005;BME280;17676;52.254;4.490;2023-09-08T10:49:40;101596.50;;;30.86;100.00
31005;BME280;17676;52.254;4.490;2023-09-08T10:52:10;101599.94;;;30.83;100.00
31005;BME280;17676;52.254;4.490;2023-09-08T10:54:43;101593.81;;;30.64;100.00
31005;BME280;17676;52.254;4.490;2023-09-08T10:57:16;101597.16;;;30.83;100.00
31005;BME280;17676;52.254;4.490;2023-09-08T10:59:51;101600.31;;;30.90;100.00
31005;BME280;17676;52.254;4.490;2023-09-08T11:02:34;101605.13;;;31.07;100.00
31005;BME280;17676;52.254;4.490;2023-09-08T11:05:01;101608.72;;;30.99;100.00
31005;BME280;17676;52.254;4.490;2023-09-08T11:07:27;101614.19;;;31.12;100.00
31005;BME280;17676;52.254;4.490;2023-09-08T11:09:55;101612.09;;;31.26;100.00
31005;BME280;17676;52.254;4.490;2023-09-08T11:12:21;101601.41;;;31.46;100.00
31005;BME280;17676;52.254;4.490;2023-09-08T11:14:49;101614.59;;;31.37;100.00
31005;BME280;17676;52.254;4.490;2023-09-08T11:17:15;101616.88;;;31.69;100.00
31005;BME280;17676;52.254;4.490;2023-09-08T11:19:48;101612.09;;;32.03;100.00
31005;BME280;17676;52.254;4.490;2023-09-08T11:22:17;101605.97;;;32.10;100.00
31005;BME280;17676;52.254;4.490;2023-09-08T11:24:44;101613.22;;;32.11;100.00
31005;BME280;17676;52.254;4.490;2023-09-08T11:27:11;101602.94;;;32.32;100.00
31005;BME280;17676;52.254;4.490;2023-09-08T11:29:36;101619.03;;;32.52;100.00
31005;BME280;17676;52.254;4.490;2023-09-08T11:32:06;101601.84;;;32.62;100.00
31005;BME280;17676;52.254;4.490;2023-09-08T11:34:34;101616.19;;;32.98;100.00
31005;BME280;17676;52.254;4.490;2023-09-08T11:36:59;101620.50;;;33.45;100.00
31005;BME280;17676;52.254;4.490;2023-09-08T11:39:25;101610.25;;;33.81;100.00
31005;BME280;17676;52.254;4.490;2023-09-08T11:41:55;101619.13;;;33.51;100.00
31005;BME280;17676;52.254;4.490;2023-09-08T11:44:21;101615.22;;;33.64;100.00
31005;BME280;17676;52.254;4.490;2023-09-08T11:46:47;101602.41;;;33.75;100.00
31005;BME280;17676;52.254;4.490;2023-09-08T11:49:19;101609.88;;;33.50;100.00
31005;BME280;17676;52.254;4.490;2023-09-08T11:51:45;101598.91;;;33.37;100.00
31005;BME280;17676;52.254;4.490;2023-09-08T11:54:11;101603.75;;;33.28;100.00
31005;BME280;17676;52.254;4.490;2023-09-08T11:56:37;101606.66;;;33.40;100.00
31005;BME280;17676;52.254;4.490;2023-09-08T11:59:03;101599.88;;;33.41;100.00
31005;BME280;17676;52.254;4.490;2023-09-08T12:01:29;101607.31;;;33.16;100.00
31005;BME280;17676;52.254;4.490;2023-09-08T12:03:55;101593.34;;;33.28;100.00
31005;BME280;17676;52.254;4.490;2023-09-08T12:06:27;101607.44;;;33.20;100.00
31005;BME280;17676;52.254;4.490;2023-09-08T12:08:58;101597.69;;;32.97;100.00
31005;BME280;17676;52.254;4.490;2023-09-08T12:11:35;101587.34;;;32.89;100.00
31005;BME280;17676;52.254;4.490;2023-09-08T12:14:06;101585.25;;;32.77;100.00
31005;BME280;17676;52.254;4.490;2023-09-08T12:16:32;101601.59;;;32.75;100.00
31005;BME280;17676;52.254;4.490;2023-09-08T12:18:58;101589.53;;;32.46;100.00
31005;BME280;17676;52.254;4.490;2023-09-08T12:21:23;101586.13;;;32.32;100.00
31005;BME280;17676;52.254;4.490;2023-09-08T12:23:50;101580.56;;;32.15;100.00
31005;BME280;17676;52.254;4.490;2023-09-08T12:26:17;101598.34;;;32.19;100.00
31005;BME280;17676;52.254;4.490;2023-09-08T12:28:43;101586.38;;;32.01;100.00
31005;BME280;17676;52.254;4.490;2023-09-08T12:31:09;101578.59;;;32.07;100.00
31005;BME280;17676;52.254;4.490;2023-09-08T12:33:35;101598.75;;;31.92;100.00
31005;BME280;17676;52.254;4.490;2023-09-08T12:36:21;101585.56;;;31.84;100.00
31005;BME280;17676;52.254;4.490;2023-09-08T12:38:52;101591.66;;;31.94;100.00
31005;BME280;17676;52.254;4.490;2023-09-08T12:41:18;101596.47;;;31.77;100.00
31005;BME280;17676;52.254;4.490;2023-09-08T12:43:45;101589.19;;;31.76;100.00
31005;BME280;17676;52.254;4.490;2023-09-08T12:46:11;101580.31;;;31.74;100.00
31005;BME280;17676;52.254;4.490;2023-09-08T12:48:37;101570.09;;;31.78;100.00